North Columbia, New York
Current Conditions -  °F | °C
As of 2:53 PM on Wednesday 26 Nov 2014 (Local Time) from KRME Reporting Station
Light Snow Light Snow  
Wind Chill: 25°   Ceiling: 1400
Heat Index: 31°   Visibility: 0.75mi
Dew Point: 31°   Wind: 6mph
Humidity: 100%   Direction: 340°NNW
Pressure: 30.09"   Gusts: NA
Location:  42.9693°N, 75.0798°W
Report Text: KRME 261953Z 34005KT 3/4SM -SN BR FEW005 OVC014 M01/M01 A3009 RMK AO2 SLP192 P0005 T10061006 RVRNO
Loading
Personal Weather Stations






























Interactive Weather Map New forecast layout! Learn more

10-Day Weather Forecast

Advertisements
Track Severe Weather on mobile